ETEB 240756Z AUTO 01003KT 9999 BKN047 18/13 A3019 RMK AO2 SLP222 T01760131 $ ETIK 240756Z AUTO 02003KT 9999 OVC055 18/14 A3020 RMK AO2 SLP221 T01770136 EDDE 240850Z 03006KT 340V060 CAVOK 21/11 Q1024 NOSIG EDDF 240850Z 04007KT 010V080 CAVOK 25/12 Q1022 NOSIG ETIC 240756Z AUTO 00000KT 9999 CLR 20/16 A3018 RMK AO2 SLP212 T02040156 $ EDQM 240820Z 08006KT 050V110 CAVOK 20/14 Q1024 ETIH 240756Z AUTO 00000KT 9999 CLR 21/19 A3019 RMK AO2 SLP212 T02050191 ETSI 240820Z AUTO 04003KT 7000 // ////// 21/15 Q1021 /// EDDP 240850Z 05008KT 010V090 CAVOK 24/14 Q1024 NOSIG EDDM 240850Z 12003KT 080V200 9999 FEW020 22/17 Q1021 NOSIG ETSN 240820Z 03002KT 9999 FEW160 22/16 Q1021 BLU+ ETHN 240820Z 08004KT 9999 BKN045 20/14 Q1022 BLACKBLU EDDN 240850Z 11008KT 060V140 CAVOK 23/15 Q1022 NOSIG EDDS 240850Z VRB02KT 9999 FEW028 BKN049 22/15 Q1022 NOSIG

METAR Messwerte

Klicken Sie auf einen Ort, um die 36h-Historie abzurufen

Ort
m ü. NN
Zeit Temperatur Taupunkt Rel.
Luftfeuchte
Luftdruck:
Altimeter
NN
Station
Wind in Beaufort
(Knoten)
Sichtweite
(Meter)
Wolken
(Meter über Grund)
Wettererscheinung
Ansbach
467
Sa 24.08. 09:56181373 %1022
1022
967
N 2 (3)>= 10000Stark bewölkt (1400) 
Bad Windsheim / Illesheim
325
Sa 24.08. 09:56181477 %1023
1023
984
NNO 2 (3)>= 10000Bedeckt (1700) 
Erfurt-Bindersleben
323
Sa 24.08. 10:50211153 %1024
1023
985
NNO 2 (6)
NNW - ONO
>= 10000Nicht signifikant 
Frankfurt
113
Sa 24.08. 10:50251244 %1022
1022
1008
NO 3 (7)
N - O
>= 10000Nicht signifikant 
Grafenwöhr
415
Sa 24.08. 09:56201678 %1022
1021
973
Windstill>= 10000  
Hof
568
Sa 24.08. 10:20201468 %1024
1023
957
O 2 (6)
NO - OSO
>= 10000Nicht signifikant 
Hohenfels
442
Sa 24.08. 09:56211988 %1022
1021
970
Windstill>= 10000  
Ingolstadt
370
Sa 24.08. 10:20211569 %1021
1020
977
NO 2 (3)7000  
Leipzig-Schkeuditz
149
Sa 24.08. 10:50241454 %1024
1023
1006
NO 3 (8)
N - O
>= 10000Nicht signifikant 
München
447
Sa 24.08. 10:50221773 %1021
1020
968
OSO 2 (3)
O - SSW
>= 10000Leicht bewölkt (610) 
Neuburg/Donau
387
Sa 24.08. 10:20221669 %1021
1020
975
NNO 1 (2)>= 10000Leicht bewölkt (4900) 
Niederstetten
473
Sa 24.08. 10:20201468 %1022
1021
966
O 2 (4)>= 10000Stark bewölkt (1400) 
Nürnberg
312
Sa 24.08. 10:50231561 %1022
1021
985
OSO 3 (8)
ONO - SO
>= 10000Nicht signifikant 
Stuttgart
419
Sa 24.08. 10:50221565 %1022
1021
972
Uml 1 (2)>= 10000Stark bewölkt (1500)
Leicht bewölkt (850)
 

Altimeter: Einstellung am Altimeter (Höhenmesser), die Höhe 0 muss auf diesen Luftdruckwert zeigen, damit das Gerät die Stationshöhe richtig anzeigt.

NN: Luftdruck reduziert auf "Normal Null", auf Meereshöhe, dieser von der Temperatur abhängige Wert wird bisweilen unkorrekt einfach als "Luftdruck" bezeichnet. Eigentlich nur eine fiktive Größe, die es erlaubt, Stationen auf unterschiedlichen Höhen miteinander zu vergleichen.

Station: Realer Luftdruck an der Station.